createdAt,value
2023-03-23T00:00:49.796Z,3.1
2023-03-23T00:01:50.389Z,2.9
2023-03-23T00:02:50.983Z,2.6
2023-03-23T00:03:51.574Z,2.6
2023-03-23T00:04:52.168Z,3.1
2023-03-23T00:05:52.818Z,2.9
2023-03-23T00:06:53.412Z,3.0
2023-03-23T00:07:53.999Z,3.3
2023-03-23T00:08:54.918Z,2.9
2023-03-23T00:09:56.516Z,3.1
2023-03-23T00:10:57.097Z,3.2
2023-03-23T00:11:57.713Z,2.9
2023-03-23T00:12:58.314Z,2.9
2023-03-23T00:13:58.893Z,2.9
2023-03-23T00:14:59.537Z,3.1
2023-03-23T00:16:04.347Z,2.6
2023-03-23T00:17:02.246Z,3.3
2023-03-23T00:18:02.840Z,2.8
2023-03-23T00:19:03.435Z,3.4
2023-03-23T00:20:04.028Z,3.1
2023-03-23T00:21:04.637Z,3.4
2023-03-23T00:22:05.229Z,3.1
2023-03-23T00:23:05.829Z,3.0
2023-03-23T00:24:06.526Z,3.4
2023-03-23T00:25:07.165Z,3.4
2023-03-23T00:26:07.713Z,3.2
2023-03-23T00:27:08.322Z,3.4
2023-03-23T00:28:08.911Z,3.4
2023-03-23T00:29:09.525Z,3.3
2023-03-23T00:30:10.203Z,3.4
2023-03-23T00:31:10.801Z,3.5
2023-03-23T00:32:11.388Z,3.4
2023-03-23T00:33:11.982Z,3.2
2023-03-23T00:34:12.574Z,3.4
2023-03-23T00:35:13.179Z,3.9
2023-03-23T00:36:13.762Z,3.2
2023-03-23T00:37:14.496Z,3.7
2023-03-23T00:38:15.091Z,3.3
2023-03-23T00:39:15.697Z,3.7
2023-03-23T00:40:16.579Z,3.4
2023-03-23T00:41:17.726Z,3.7
2023-03-23T00:42:18.317Z,3.8
2023-03-23T00:43:18.913Z,3.5
2023-03-23T00:44:22.010Z,3.7
2023-03-23T00:45:21.088Z,3.4
2023-03-23T00:46:21.686Z,3.1
2023-03-23T00:47:22.299Z,3.5
2023-03-23T00:48:23.067Z,3.3
2023-03-23T00:49:23.659Z,3.3
2023-03-23T00:50:29.492Z,3.8
2023-03-23T00:51:25.839Z,3.7
2023-03-23T00:52:26.434Z,3.3
2023-03-23T00:53:27.388Z,3.2
2023-03-23T00:54:27.984Z,5.2
2023-03-23T00:55:28.602Z,4.5
2023-03-23T00:56:29.183Z,3.7
2023-03-23T00:57:29.783Z,3.3
2023-03-23T00:58:30.625Z,3.9
2023-03-23T00:59:31.219Z,3.3
2023-03-23T01:00:32.261Z,3.2
2023-03-23T01:01:32.855Z,3.3
2023-03-23T01:02:33.619Z,3.8
2023-03-23T01:03:34.227Z,3.4
2023-03-23T01:04:34.835Z,3.5
2023-03-23T01:05:35.427Z,3.2
2023-03-23T01:06:36.022Z,3.2
2023-03-23T01:07:36.615Z,3.1
2023-03-23T01:08:37.224Z,3.4
2023-03-23T01:09:37.838Z,3.8
2023-03-23T01:10:38.840Z,3.3
2023-03-23T01:11:39.433Z,3.0
2023-03-23T01:12:40.039Z,3.3
2023-03-23T01:13:40.626Z,3.7
2023-03-23T01:14:41.414Z,2.8
2023-03-23T01:15:42.318Z,3.1
2023-03-23T01:16:43.034Z,2.8
2023-03-23T01:17:43.627Z,3.8
2023-03-23T01:18:44.218Z,3.7
2023-03-23T01:19:44.846Z,3.3
2023-03-23T01:20:45.442Z,3.3
2023-03-23T01:21:46.034Z,3.2
2023-03-23T01:22:46.627Z,3.4
2023-03-23T01:23:47.219Z,3.3
2023-03-23T01:24:47.813Z,3.6
2023-03-23T01:25:48.402Z,3.3
2023-03-23T01:26:48.996Z,3.2
2023-03-23T01:27:49.588Z,3.6
2023-03-23T01:28:50.182Z,3.2
2023-03-23T01:29:50.778Z,3.2
2023-03-23T01:30:51.367Z,3.4
2023-03-23T01:31:52.058Z,3.8
2023-03-23T01:32:52.652Z,3.3
2023-03-23T01:33:53.405Z,3.0
2023-03-23T01:34:53.998Z,3.4
2023-03-23T01:35:54.618Z,3.2
2023-03-23T01:36:55.211Z,3.5
2023-03-23T01:37:55.804Z,2.9
2023-03-23T01:38:56.404Z,3.3
2023-03-23T01:39:56.998Z,3.2
2023-03-23T01:40:57.589Z,3.0
2023-03-23T01:41:58.191Z,3.0
2023-03-23T01:42:58.778Z,2.9
2023-03-23T01:43:59.372Z,3.1
2023-03-23T01:44:59.975Z,3.0
2023-03-23T01:46:00.558Z,2.6
2023-03-23T01:47:01.153Z,2.5
2023-03-23T01:48:01.744Z,3.0
2023-03-23T01:49:02.346Z,2.4
2023-03-23T01:50:02.934Z,2.8
2023-03-23T01:51:03.537Z,2.9
2023-03-23T01:52:04.131Z,2.8
2023-03-23T01:53:04.724Z,2.9
2023-03-23T01:54:05.321Z,2.3
2023-03-23T01:55:05.931Z,2.7
2023-03-23T01:56:06.587Z,2.4
2023-03-23T01:57:07.323Z,3.0
2023-03-23T01:58:08.150Z,3.0
2023-03-23T01:59:09.244Z,2.4
2023-03-23T02:00:09.836Z,2.5
2023-03-23T02:01:10.713Z,2.4
2023-03-23T02:02:11.500Z,2.2
2023-03-23T02:03:12.092Z,2.6
2023-03-23T02:04:13.678Z,2.3
2023-03-23T02:05:14.272Z,2.6
2023-03-23T02:06:14.999Z,2.6
2023-03-23T02:07:15.949Z,2.0
2023-03-23T02:08:16.545Z,2.8
2023-03-23T02:09:17.157Z,2.4
2023-03-23T02:10:17.760Z,2.4
2023-03-23T02:11:22.038Z,2.5
2023-03-23T02:12:19.949Z,3.0
2023-03-23T02:13:20.715Z,2.4
2023-03-23T02:14:21.310Z,2.5
2023-03-23T02:15:21.898Z,2.5
2023-03-23T02:16:22.618Z,2.1
2023-03-23T02:17:23.449Z,2.6
2023-03-23T02:18:24.062Z,2.0
2023-03-23T02:19:24.652Z,2.3
2023-03-23T02:20:25.247Z,2.3
2023-03-23T02:21:25.865Z,2.3
2023-03-23T02:22:26.460Z,2.6
2023-03-23T02:23:27.069Z,2.3
2023-03-23T02:24:27.669Z,2.5
2023-03-23T02:25:28.257Z,2.2
2023-03-23T02:26:28.850Z,2.2
2023-03-23T02:27:29.592Z,2.2
2023-03-23T02:28:30.187Z,2.1
2023-03-23T02:29:30.779Z,1.9
2023-03-23T02:30:32.410Z,2.0
2023-03-23T02:31:33.102Z,2.5
2023-03-23T02:32:33.705Z,2.1
2023-03-23T02:33:34.312Z,2.2
2023-03-23T02:34:34.927Z,2.3
2023-03-23T02:35:35.539Z,2.2
2023-03-23T02:36:36.112Z,2.3
2023-03-23T02:37:36.707Z,2.1
2023-03-23T02:38:37.321Z,2.0
2023-03-23T02:39:38.756Z,2.0
2023-03-23T02:40:39.346Z,2.2
2023-03-23T02:41:39.974Z,2.0
2023-03-23T02:42:40.630Z,2.1
2023-03-23T02:43:41.221Z,2.0
2023-03-23T02:44:41.812Z,2.0
2023-03-23T02:45:42.766Z,2.1
2023-03-23T02:46:43.580Z,2.0
2023-03-23T02:47:44.174Z,2.6
2023-03-23T02:48:44.814Z,2.3
2023-03-23T02:49:45.373Z,1.9
2023-03-23T02:50:46.102Z,2.1
2023-03-23T02:51:46.794Z,2.2
2023-03-23T02:52:47.388Z,1.9
2023-03-23T02:53:48.138Z,2.4
2023-03-23T02:54:48.731Z,1.9
2023-03-23T02:55:49.327Z,2.0
2023-03-23T02:56:50.002Z,2.5
2023-03-23T02:57:50.596Z,2.3
2023-03-23T02:58:51.188Z,2.1
2023-03-23T02:59:51.778Z,2.1
2023-03-23T03:00:52.375Z,2.2
2023-03-23T03:01:52.964Z,2.5
2023-03-23T03:02:53.576Z,2.2
2023-03-23T03:03:54.613Z,2.2
2023-03-23T03:04:55.217Z,1.9
2023-03-23T03:05:55.850Z,2.4
2023-03-23T03:06:56.559Z,2.2
2023-03-23T03:07:57.164Z,2.3
2023-03-23T03:08:57.811Z,2.2
2023-03-23T03:09:58.406Z,2.1
2023-03-23T03:10:58.997Z,2.2
2023-03-23T03:11:59.730Z,1.9
2023-03-23T03:13:00.632Z,1.9
2023-03-23T03:14:01.442Z,2.1
2023-03-23T03:15:02.042Z,2.1
2023-03-23T03:16:02.629Z,2.1
2023-03-23T03:17:03.224Z,1.7
2023-03-23T03:18:04.082Z,2.1
2023-03-23T03:19:04.676Z,1.9
2023-03-23T03:20:05.270Z,2.1
2023-03-23T03:21:06.542Z,1.7
2023-03-23T03:22:07.138Z,2.3
2023-03-23T03:23:08.379Z,1.6
2023-03-23T03:24:08.970Z,2.0
2023-03-23T03:25:18.836Z,1.8
2023-03-23T03:26:11.153Z,1.6
2023-03-23T03:27:11.746Z,1.8
2023-03-23T03:28:12.341Z,1.8
2023-03-23T03:29:12.935Z,1.5
2023-03-23T03:30:13.818Z,1.8
2023-03-23T03:31:14.416Z,2.1
2023-03-23T03:32:15.301Z,1.6
2023-03-23T03:33:15.915Z,1.9
2023-03-23T03:34:16.508Z,1.8
2023-03-23T03:35:17.929Z,1.8
2023-03-23T03:36:18.554Z,1.9
2023-03-23T03:37:19.116Z,2.1
2023-03-23T03:38:20.009Z,1.6
2023-03-23T03:39:20.605Z,1.7
2023-03-23T03:40:21.198Z,1.8
2023-03-23T03:41:21.794Z,1.8
2023-03-23T03:42:22.387Z,1.3
2023-03-23T03:43:22.977Z,1.8
2023-03-23T03:44:23.572Z,1.6
2023-03-23T03:45:24.164Z,1.6
2023-03-23T03:46:25.025Z,1.5
2023-03-23T03:47:26.198Z,1.9
2023-03-23T03:48:26.791Z,1.6
2023-03-23T03:49:27.441Z,1.4
2023-03-23T03:50:28.032Z,1.5
2023-03-23T03:51:29.065Z,1.7
2023-03-23T03:52:29.658Z,1.8
2023-03-23T03:53:30.254Z,1.7
2023-03-23T03:54:30.845Z,2.1
2023-03-23T03:55:31.438Z,1.4
2023-03-23T03:56:32.071Z,1.2
2023-03-23T03:57:32.626Z,1.6
2023-03-23T03:58:33.555Z,1.6
2023-03-23T03:59:34.148Z,1.5
2023-03-23T04:00:35.108Z,1.6
2023-03-23T04:01:36.691Z,1.8
2023-03-23T04:02:37.443Z,1.4
2023-03-23T04:03:38.033Z,1.5
2023-03-23T04:04:38.631Z,1.5
2023-03-23T04:05:40.068Z,1.4
2023-03-23T04:06:40.844Z,1.5
2023-03-23T04:07:41.483Z,1.7
2023-03-23T04:08:43.556Z,1.4
2023-03-23T04:09:43.841Z,1.5
2023-03-23T04:10:44.982Z,1.7
2023-03-23T04:11:45.580Z,1.5
2023-03-23T04:12:46.174Z,1.6
2023-03-23T04:13:46.933Z,1.6
2023-03-23T04:14:47.542Z,1.9
2023-03-23T04:16:10.274Z,1.7
2023-03-23T04:16:54.596Z,1.5
2023-03-23T04:17:51.181Z,1.5
2023-03-23T04:18:51.795Z,1.4
2023-03-23T04:19:53.400Z,2.7
2023-03-23T04:20:53.965Z,1.8
2023-03-23T04:21:54.573Z,1.9
2023-03-23T04:22:55.167Z,1.7
2023-03-23T04:23:56.154Z,1.5
2023-03-23T04:24:57.194Z,1.4
2023-03-23T04:25:58.318Z,1.5
2023-03-23T04:26:58.903Z,1.1
2023-03-23T04:28:01.638Z,1.7
2023-03-23T04:29:02.079Z,1.4
2023-03-23T04:30:02.755Z,1.8
2023-03-23T04:31:06.199Z,1.8
2023-03-23T04:32:05.113Z,1.7
2023-03-23T04:33:05.774Z,1.8
2023-03-23T04:34:06.365Z,1.6
2023-03-23T04:35:12.713Z,1.5
2023-03-23T04:36:08.755Z,1.4
2023-03-23T04:37:09.333Z,1.8
2023-03-23T04:38:10.918Z,1.5
2023-03-23T04:39:11.518Z,1.7
2023-03-23T04:40:12.106Z,1.7
2023-03-23T04:41:12.698Z,1.7
2023-03-23T04:42:13.294Z,1.6
2023-03-23T04:43:13.886Z,1.6
2023-03-23T04:44:14.477Z,1.6
2023-03-23T04:45:15.100Z,1.8
2023-03-23T04:46:15.952Z,1.2
2023-03-23T04:47:16.526Z,1.3
2023-03-23T04:48:17.144Z,1.5
2023-03-23T04:49:17.725Z,1.3
2023-03-23T04:50:19.310Z,1.5
2023-03-23T04:51:19.907Z,1.2
2023-03-23T04:52:20.501Z,1.4
2023-03-23T04:53:21.111Z,1.3
2023-03-23T04:54:21.704Z,1.3
2023-03-23T04:55:22.305Z,1.4
2023-03-23T04:56:22.920Z,1.3
2023-03-23T04:57:23.526Z,1.4
2023-03-23T04:58:24.134Z,1.2
2023-03-23T04:59:24.894Z,1.3
2023-03-23T05:00:25.488Z,1.8
2023-03-23T05:01:26.085Z,1.4
2023-03-23T05:02:26.678Z,1.4
2023-03-23T05:03:28.270Z,1.3
2023-03-23T05:04:28.926Z,1.3
2023-03-23T05:05:29.694Z,1.5
2023-03-23T05:06:30.291Z,1.3
2023-03-23T05:07:30.896Z,1.3
2023-03-23T05:08:31.482Z,1.1
2023-03-23T05:09:32.075Z,1.3
2023-03-23T05:10:32.668Z,1.3
2023-03-23T05:11:33.264Z,1.1
2023-03-23T05:12:33.858Z,1.2
2023-03-23T05:13:34.467Z,1.4
2023-03-23T05:14:37.792Z,1.1
2023-03-23T05:15:36.651Z,1.4
2023-03-23T05:16:37.276Z,1.3
2023-03-23T05:17:37.877Z,1.3
2023-03-23T05:18:38.466Z,1.2
2023-03-23T05:19:39.066Z,1.2
2023-03-23T05:20:39.661Z,1.3
2023-03-23T05:21:40.261Z,1.2
2023-03-23T05:22:40.856Z,1.2
2023-03-23T05:23:41.454Z,1.0
2023-03-23T05:24:42.051Z,1.4
2023-03-23T05:25:42.936Z,1.2
2023-03-23T05:26:43.641Z,1.1
2023-03-23T05:27:44.239Z,1.0
2023-03-23T05:28:44.833Z,1.2
2023-03-23T05:29:45.428Z,1.8
2023-03-23T05:30:46.048Z,1.4
2023-03-23T05:31:46.624Z,1.0
2023-03-23T05:32:47.236Z,1.6
2023-03-23T05:33:47.834Z,0.9
2023-03-23T05:34:48.427Z,1.1
2023-03-23T05:35:49.049Z,1.3
2023-03-23T05:36:49.621Z,1.3
2023-03-23T05:37:50.220Z,1.3
2023-03-23T05:38:50.814Z,1.0
2023-03-23T05:39:51.412Z,1.3
2023-03-23T05:40:52.011Z,1.1
2023-03-23T05:41:52.606Z,1.3
2023-03-23T05:42:53.220Z,1.0
2023-03-23T05:43:53.818Z,1.0
2023-03-23T05:44:54.416Z,1.1
2023-03-23T05:45:55.033Z,1.2
2023-03-23T05:46:55.630Z,0.8
2023-03-23T05:47:56.232Z,0.9
2023-03-23T05:48:56.826Z,1.3
2023-03-23T05:49:57.426Z,1.1
2023-03-23T05:50:58.023Z,1.5
2023-03-23T05:51:58.641Z,5.2
2023-03-23T05:52:59.238Z,2.1
2023-03-23T05:53:59.834Z,1.2
2023-03-23T05:55:00.433Z,1.4
2023-03-23T05:56:01.029Z,1.3
2023-03-23T05:57:01.628Z,1.4
2023-03-23T05:58:02.230Z,1.3
2023-03-23T05:59:02.822Z,1.2
2023-03-23T06:00:03.545Z,1.2
2023-03-23T06:01:04.132Z,1.2
2023-03-23T06:02:04.729Z,1.2
2023-03-23T06:03:05.422Z,1.8
2023-03-23T06:04:06.030Z,1.4
2023-03-23T06:05:06.650Z,1.1
2023-03-23T06:06:07.460Z,1.1
2023-03-23T06:07:08.052Z,1.5
2023-03-23T06:08:08.669Z,1.2
2023-03-23T06:09:09.266Z,1.1
2023-03-23T06:10:09.864Z,1.4
2023-03-23T06:11:10.464Z,1.2
2023-03-23T06:12:11.093Z,1.4
2023-03-23T06:13:11.700Z,1.2
2023-03-23T06:14:12.362Z,1.2
2023-03-23T06:15:13.154Z,1.2
2023-03-23T06:16:13.745Z,1.1
2023-03-23T06:17:14.342Z,1.2
2023-03-23T06:18:14.944Z,1.1
2023-03-23T06:19:15.539Z,1.0
2023-03-23T06:20:16.143Z,1.3
2023-03-23T06:21:18.515Z,1.3
2023-03-23T06:22:18.326Z,1.2
2023-03-23T06:23:18.938Z,1.2
2023-03-23T06:24:19.519Z,1.4
2023-03-23T06:25:20.115Z,1.3
2023-03-23T06:26:20.720Z,1.4
2023-03-23T06:27:21.335Z,1.3
2023-03-23T06:28:21.935Z,1.0
2023-03-23T06:29:22.553Z,1.3
2023-03-23T06:30:23.172Z,1.1
2023-03-23T06:31:23.819Z,1.3
2023-03-23T06:32:24.417Z,1.4
2023-03-23T06:33:25.018Z,1.5
2023-03-23T06:34:25.616Z,1.4
2023-03-23T06:35:26.215Z,1.2
2023-03-23T06:36:26.837Z,1.3
2023-03-23T06:37:27.436Z,1.4
2023-03-23T06:38:28.053Z,1.2
2023-03-23T06:39:28.653Z,1.2
2023-03-23T06:40:29.254Z,1.4
2023-03-23T06:41:29.846Z,1.5
2023-03-23T06:42:30.446Z,1.3
2023-03-23T06:43:31.047Z,1.5
2023-03-23T06:44:31.642Z,1.4
2023-03-23T06:45:32.237Z,1.4
2023-03-23T06:46:32.836Z,1.6
2023-03-23T06:47:33.434Z,1.4
2023-03-23T06:48:34.031Z,1.4
2023-03-23T06:49:34.632Z,1.3
2023-03-23T06:50:35.233Z,1.5
2023-03-23T06:51:35.850Z,1.5
2023-03-23T06:52:36.458Z,1.4
2023-03-23T06:53:37.049Z,1.2
2023-03-23T06:54:38.885Z,1.3
2023-03-23T06:55:39.395Z,1.4
2023-03-23T06:56:40.114Z,1.4
2023-03-23T06:57:40.710Z,1.4
2023-03-23T06:58:41.314Z,1.5
2023-03-23T06:59:41.909Z,1.4
2023-03-23T07:00:42.513Z,1.1
2023-03-23T07:01:43.108Z,1.4
2023-03-23T07:02:43.708Z,1.4
2023-03-23T07:03:44.311Z,1.2
2023-03-23T07:04:44.905Z,1.4
2023-03-23T07:05:45.503Z,1.5
2023-03-23T07:06:46.103Z,1.7
2023-03-23T07:07:46.722Z,1.5
2023-03-23T07:08:47.322Z,1.3
2023-03-23T07:09:47.921Z,1.4
2023-03-23T07:10:48.538Z,1.5
2023-03-23T07:11:49.137Z,1.3
2023-03-23T07:12:49.737Z,1.5
2023-03-23T07:13:50.357Z,1.5
2023-03-23T07:14:50.978Z,1.3
2023-03-23T07:15:51.573Z,1.2
2023-03-23T07:16:52.175Z,1.3
2023-03-23T07:17:52.772Z,1.2
2023-03-23T07:18:53.372Z,1.6
2023-03-23T07:19:53.967Z,1.3
2023-03-23T07:20:54.565Z,1.5
2023-03-23T07:21:55.165Z,1.5
2023-03-23T07:22:55.768Z,1.4
2023-03-23T07:23:56.366Z,1.5
2023-03-23T07:24:56.966Z,1.3
2023-03-23T07:25:57.565Z,1.2
2023-03-23T07:26:58.165Z,1.5
2023-03-23T07:27:58.763Z,1.3
2023-03-23T07:28:59.362Z,1.7
2023-03-23T07:29:59.980Z,1.3
2023-03-23T07:31:00.599Z,1.3
2023-03-23T07:32:01.196Z,1.6
2023-03-23T07:33:01.796Z,1.6
2023-03-23T07:34:02.395Z,1.3
2023-03-23T07:35:02.995Z,1.4
2023-03-23T07:36:04.611Z,1.3
2023-03-23T07:37:05.184Z,1.6
2023-03-23T07:38:05.782Z,1.2
2023-03-23T07:39:06.382Z,1.5
2023-03-23T07:40:06.986Z,1.4
2023-03-23T07:41:07.598Z,1.4
2023-03-23T07:42:08.201Z,1.4
2023-03-23T07:43:08.802Z,1.2
2023-03-23T07:44:09.456Z,1.4
2023-03-23T07:45:10.070Z,1.3
2023-03-23T07:46:10.828Z,1.1
2023-03-23T07:47:11.400Z,1.3
2023-03-23T07:48:20.995Z,1.2
2023-03-23T07:49:13.608Z,1.5
2023-03-23T07:50:14.240Z,1.3
2023-03-23T07:51:14.854Z,1.3
2023-03-23T07:52:15.454Z,1.5
2023-03-23T07:53:16.069Z,1.7
2023-03-23T07:54:16.677Z,1.5
2023-03-23T07:55:17.268Z,1.5
2023-03-23T07:56:17.886Z,1.3
2023-03-23T07:57:18.489Z,1.7
2023-03-23T07:58:19.107Z,1.4
2023-03-23T07:59:19.707Z,1.6
2023-03-23T08:00:20.308Z,1.5
2023-03-23T08:01:20.910Z,1.4
2023-03-23T08:02:21.510Z,1.4
2023-03-23T08:03:22.129Z,1.7
2023-03-23T08:04:23.723Z,2.0
2023-03-23T08:05:24.320Z,1.5
2023-03-23T08:06:24.921Z,1.5
2023-03-23T08:07:25.520Z,1.8
2023-03-23T08:08:26.123Z,1.8
2023-03-23T08:09:26.721Z,1.4
2023-03-23T08:10:27.317Z,1.8
2023-03-23T08:11:27.920Z,1.9
2023-03-23T08:12:28.515Z,1.8
2023-03-23T08:13:29.140Z,2.0
2023-03-23T08:14:29.714Z,1.7
2023-03-23T08:15:30.339Z,1.7
2023-03-23T08:16:30.934Z,1.6
2023-03-23T08:17:31.556Z,1.9
2023-03-23T08:18:32.154Z,1.7
2023-03-23T08:19:32.752Z,2.1
2023-03-23T08:20:33.351Z,1.8
2023-03-23T08:21:33.950Z,2.4
2023-03-23T08:22:39.319Z,1.8
2023-03-23T08:23:36.142Z,2.0
2023-03-23T08:24:36.747Z,1.9
2023-03-23T08:25:37.339Z,2.0
2023-03-23T08:26:37.938Z,1.7
2023-03-23T08:27:38.569Z,1.9
2023-03-23T08:28:39.161Z,1.9
2023-03-23T08:29:39.760Z,1.9
2023-03-23T08:30:40.405Z,2.1
2023-03-23T08:31:40.971Z,1.8
2023-03-23T08:32:41.570Z,2.1
2023-03-23T08:33:42.171Z,1.5
2023-03-23T08:34:42.768Z,2.1
2023-03-23T08:35:43.624Z,1.8
2023-03-23T08:36:44.356Z,1.7
2023-03-23T08:37:44.957Z,1.8
2023-03-23T08:38:45.560Z,1.7
2023-03-23T08:39:46.169Z,2.1
2023-03-23T08:40:46.760Z,2.1
2023-03-23T08:41:47.356Z,1.8
2023-03-23T08:42:52.452Z,2.1
2023-03-23T08:43:49.548Z,1.8
2023-03-23T08:44:50.146Z,1.6
2023-03-23T08:45:51.743Z,1.9
2023-03-23T08:46:52.344Z,1.8
2023-03-23T08:47:52.941Z,1.8
2023-03-23T08:48:53.541Z,1.9
2023-03-23T08:49:54.162Z,1.8
2023-03-23T08:50:54.761Z,1.8
2023-03-23T08:51:55.359Z,2.0
2023-03-23T08:52:55.960Z,1.8
2023-03-23T08:53:56.582Z,2.1
2023-03-23T08:54:57.181Z,1.9
2023-03-23T08:55:57.803Z,1.8
2023-03-23T08:56:58.409Z,2.1
2023-03-23T08:57:59.005Z,2.1
2023-03-23T08:58:59.604Z,2.0
2023-03-23T09:00:00.221Z,2.1
2023-03-23T09:01:00.803Z,2.2
2023-03-23T09:02:01.403Z,1.9
2023-03-23T09:03:02.004Z,1.7
2023-03-23T09:04:02.603Z,1.6
2023-03-23T09:05:03.215Z,2.0
2023-03-23T09:06:03.805Z,2.7
2023-03-23T09:07:04.434Z,2.4
2023-03-23T09:08:05.018Z,1.9
2023-03-23T09:09:05.621Z,2.4
2023-03-23T09:10:06.222Z,4.3
2023-03-23T09:11:06.815Z,2.1
2023-03-23T09:12:07.424Z,3.1
2023-03-23T09:13:08.016Z,3.9
2023-03-23T09:14:08.615Z,2.2
2023-03-23T09:15:09.221Z,2.2
2023-03-23T09:16:09.818Z,1.7
2023-03-23T09:17:11.020Z,2.0
2023-03-23T09:18:11.621Z,2.2
2023-03-23T09:19:12.232Z,2.3
2023-03-23T09:20:12.854Z,2.1
2023-03-23T09:21:18.739Z,2.2
2023-03-23T09:22:15.013Z,2.2
2023-03-23T09:23:15.626Z,2.0
2023-03-23T09:24:16.220Z,2.0
2023-03-23T09:25:16.819Z,1.9
2023-03-23T09:26:17.416Z,1.7
2023-03-23T09:27:18.339Z,2.1
2023-03-23T09:28:18.856Z,2.7
2023-03-23T09:29:19.466Z,2.7
2023-03-23T09:30:20.076Z,1.7
2023-03-23T09:31:20.902Z,2.0
2023-03-23T09:32:21.453Z,2.2
2023-03-23T09:33:22.056Z,1.6
2023-03-23T09:34:22.657Z,2.0
2023-03-23T09:35:23.258Z,1.9
2023-03-23T09:36:24.065Z,2.1
2023-03-23T09:37:24.668Z,2.0
2023-03-23T09:38:25.267Z,2.3
2023-03-23T09:39:25.870Z,2.0
2023-03-23T09:40:26.470Z,2.2
2023-03-23T09:41:27.073Z,2.0
2023-03-23T09:42:27.671Z,1.6
2023-03-23T09:43:28.271Z,2.0
2023-03-23T09:44:28.890Z,2.1
2023-03-23T09:45:29.489Z,1.8
2023-03-23T09:46:30.088Z,2.2
2023-03-23T09:47:30.713Z,2.2
2023-03-23T09:48:31.325Z,1.9
2023-03-23T09:49:31.943Z,2.4
2023-03-23T09:50:33.536Z,1.9
2023-03-23T09:51:34.192Z,2.0
2023-03-23T09:52:34.751Z,2.4
2023-03-23T09:53:35.360Z,2.4
2023-03-23T09:54:35.953Z,2.1
2023-03-23T09:55:36.568Z,1.9
2023-03-23T09:56:37.168Z,2.2
2023-03-23T09:57:37.769Z,2.3
2023-03-23T09:58:38.388Z,2.2
2023-03-23T09:59:38.989Z,1.7
2023-03-23T10:00:39.657Z,1.9
2023-03-23T10:01:40.228Z,2.0
2023-03-23T10:02:40.848Z,2.2
2023-03-23T10:03:41.475Z,2.2
2023-03-23T10:04:42.075Z,1.9
2023-03-23T10:05:42.830Z,2.0
2023-03-23T10:06:43.462Z,2.3
2023-03-23T10:07:44.083Z,2.2
2023-03-23T10:08:51.592Z,1.6
2023-03-23T10:09:45.299Z,2.0
2023-03-23T10:10:45.901Z,1.7
2023-03-23T10:11:47.455Z,2.0
2023-03-23T10:12:48.095Z,2.0
2023-03-23T10:13:48.699Z,1.9
2023-03-23T10:14:49.321Z,1.6
2023-03-23T10:15:49.924Z,2.0
2023-03-23T10:16:50.543Z,1.9
2023-03-23T10:17:51.202Z,1.8
2023-03-23T10:18:51.763Z,1.9
2023-03-23T10:19:52.368Z,2.0
2023-03-23T10:20:52.966Z,1.8
2023-03-23T10:21:53.571Z,1.6
2023-03-23T10:22:54.168Z,2.0
2023-03-23T10:23:54.773Z,2.1
2023-03-23T10:24:55.392Z,1.9
2023-03-23T10:25:56.003Z,2.2
2023-03-23T10:26:56.620Z,2.0
2023-03-23T10:27:57.238Z,2.2
2023-03-23T10:28:57.838Z,1.9
2023-03-23T10:29:58.439Z,1.6
2023-03-23T10:30:59.066Z,1.9
2023-03-23T10:31:59.836Z,2.1
2023-03-23T10:33:00.417Z,2.3
2023-03-23T10:34:01.016Z,1.4
2023-03-23T10:35:01.616Z,1.7
2023-03-23T10:36:02.291Z,1.9
2023-03-23T10:37:02.892Z,1.8
2023-03-23T10:38:03.492Z,1.7
2023-03-23T10:39:04.094Z,1.9
2023-03-23T10:40:04.711Z,1.7
2023-03-23T10:41:05.313Z,2.2
2023-03-23T10:42:05.934Z,2.0
2023-03-23T10:43:06.531Z,2.2
2023-03-23T10:44:07.141Z,1.9
2023-03-23T10:45:07.756Z,2.0
2023-03-23T10:46:08.381Z,1.6
2023-03-23T10:47:08.973Z,1.7
2023-03-23T10:48:09.573Z,1.9
2023-03-23T10:49:10.174Z,2.0
2023-03-23T10:50:10.776Z,2.2
2023-03-23T10:51:11.376Z,1.6
2023-03-23T10:52:11.984Z,1.7
2023-03-23T10:53:12.578Z,1.8
2023-03-23T10:54:13.183Z,1.9
2023-03-23T10:55:13.812Z,2.0
2023-03-23T10:56:14.405Z,2.5
2023-03-23T10:57:15.040Z,2.3
2023-03-23T10:58:15.647Z,2.2
2023-03-23T10:59:16.247Z,1.7
2023-03-23T11:00:16.849Z,2.2
2023-03-23T11:01:17.469Z,2.2
2023-03-23T11:02:29.231Z,2.0
2023-03-23T11:03:19.662Z,2.5
2023-03-23T11:04:20.264Z,1.9
2023-03-23T11:05:21.724Z,2.0
2023-03-23T11:06:22.455Z,1.8
2023-03-23T11:07:23.055Z,2.4
2023-03-23T11:08:23.899Z,2.3
2023-03-23T11:09:25.250Z,2.3
2023-03-23T11:10:25.848Z,2.1
2023-03-23T11:11:26.455Z,2.2
2023-03-23T11:12:27.071Z,2.0
2023-03-23T11:13:27.673Z,2.1
2023-03-23T11:14:28.272Z,2.1
2023-03-23T11:15:28.894Z,2.3
2023-03-23T11:16:29.487Z,2.4
2023-03-23T11:17:30.081Z,2.5
2023-03-23T11:18:30.689Z,2.1
2023-03-23T11:19:31.282Z,2.6
2023-03-23T11:20:31.882Z,1.5
2023-03-23T11:21:32.484Z,1.6
2023-03-23T11:22:33.087Z,1.7
2023-03-23T11:23:33.685Z,1.2
2023-03-23T11:24:34.307Z,1.1
2023-03-23T11:25:34.905Z,1.3
2023-03-23T11:26:35.506Z,1.3
2023-03-23T11:27:36.106Z,1.1
2023-03-23T11:28:36.738Z,1.5
2023-03-23T11:29:37.343Z,1.3
2023-03-23T11:30:37.935Z,1.2
2023-03-23T11:31:38.540Z,1.1
2023-03-23T11:32:39.158Z,1.1
2023-03-23T11:33:39.774Z,1.0
2023-03-23T11:34:40.378Z,0.8
2023-03-23T11:35:41.219Z,1.0
2023-03-23T11:36:41.863Z,0.8
2023-03-23T11:37:42.464Z,0.9
2023-03-23T11:38:43.067Z,1.0
2023-03-23T11:39:43.672Z,1.0
2023-03-23T11:40:44.262Z,0.9
2023-03-23T11:41:44.863Z,1.1
2023-03-23T11:42:45.463Z,1.0
2023-03-23T11:43:46.073Z,0.7
2023-03-23T11:44:46.672Z,0.7
2023-03-23T11:45:47.263Z,0.7
2023-03-23T11:46:47.863Z,0.7
2023-03-23T11:47:48.464Z,0.7
2023-03-23T11:48:49.066Z,0.7
2023-03-23T11:49:49.666Z,0.9
2023-03-23T11:50:50.284Z,0.5
2023-03-23T11:51:50.884Z,0.6
2023-03-23T11:52:51.484Z,0.9
2023-03-23T11:53:52.098Z,0.8
2023-03-23T11:54:52.684Z,0.4
2023-03-23T11:55:53.363Z,0.7
2023-03-23T11:56:53.925Z,0.7
2023-03-23T11:57:54.524Z,0.7
2023-03-23T11:58:55.144Z,0.7
2023-03-23T11:59:55.744Z,0.7
2023-03-23T12:00:56.344Z,0.7
2023-03-23T12:01:59.616Z,1.0
2023-03-23T12:02:58.539Z,0.6
2023-03-23T12:03:59.138Z,0.8
2023-03-23T12:04:59.748Z,0.7
2023-03-23T12:06:00.341Z,0.8
2023-03-23T12:07:00.956Z,0.8
2023-03-23T12:08:01.552Z,0.4
2023-03-23T12:09:02.151Z,0.7
2023-03-23T12:10:02.749Z,0.7
2023-03-23T12:11:03.520Z,0.7
2023-03-23T12:12:04.405Z,0.6
2023-03-23T12:13:05.006Z,0.6
2023-03-23T12:14:05.605Z,0.7
2023-03-23T12:15:06.204Z,0.5
2023-03-23T12:16:06.807Z,0.6
2023-03-23T12:17:07.400Z,0.6
2023-03-23T12:18:08.002Z,0.6
2023-03-23T12:19:08.598Z,0.5
2023-03-23T12:20:09.199Z,0.8
2023-03-23T12:21:09.827Z,0.7
2023-03-23T12:22:11.393Z,0.6
2023-03-23T12:23:11.992Z,0.8
2023-03-23T12:24:12.595Z,0.8
2023-03-23T12:25:13.190Z,0.7
2023-03-23T12:26:13.809Z,0.8
2023-03-23T12:27:14.390Z,0.8
2023-03-23T12:28:14.987Z,0.8
2023-03-23T12:29:15.588Z,0.7
2023-03-23T12:30:16.208Z,0.8
2023-03-23T12:31:16.805Z,1.3
2023-03-23T12:32:17.423Z,0.6
2023-03-23T12:33:18.021Z,0.9
2023-03-23T12:34:18.639Z,0.9
2023-03-23T12:35:21.587Z,0.9
2023-03-23T12:36:20.858Z,0.9
2023-03-23T12:37:21.434Z,0.8
2023-03-23T12:38:22.035Z,1.1
2023-03-23T12:39:22.635Z,0.9
2023-03-23T12:40:23.256Z,0.9
2023-03-23T12:41:23.852Z,0.5
2023-03-23T12:42:24.451Z,0.9
2023-03-23T12:43:25.053Z,0.8
2023-03-23T12:44:25.654Z,0.6
2023-03-23T12:45:26.260Z,0.6
2023-03-23T12:46:26.853Z,0.6
2023-03-23T12:47:27.451Z,1.0
2023-03-23T12:48:28.051Z,0.9
2023-03-23T12:49:28.649Z,0.9
2023-03-23T12:50:29.306Z,0.9
2023-03-23T12:51:29.952Z,1.0
2023-03-23T12:52:30.551Z,1.0
2023-03-23T12:53:31.154Z,1.2
2023-03-23T12:54:31.752Z,0.8
2023-03-23T12:55:32.355Z,0.7
2023-03-23T12:56:32.974Z,0.9
2023-03-23T12:57:33.570Z,0.7
2023-03-23T12:58:34.170Z,0.9
2023-03-23T12:59:34.773Z,0.9
2023-03-23T13:00:35.387Z,0.7
2023-03-23T13:02:17.214Z,1.0
2023-03-23T13:03:17.813Z,0.7
2023-03-23T13:04:18.456Z,0.8
2023-03-23T13:05:19.054Z,0.8
2023-03-23T13:06:19.655Z,0.8
2023-03-23T13:07:21.248Z,1.0
2023-03-23T13:08:21.849Z,1.2
2023-03-23T13:09:22.450Z,0.7
2023-03-23T13:10:23.051Z,0.7
2023-03-23T13:11:23.651Z,0.8
2023-03-23T13:12:24.252Z,1.0
2023-03-23T13:13:24.852Z,1.0
2023-03-23T13:14:25.455Z,0.7
2023-03-23T13:15:26.055Z,0.9
2023-03-23T13:16:26.656Z,0.9
2023-03-23T13:17:27.254Z,0.9
2023-03-23T13:18:27.871Z,0.7
2023-03-23T13:19:28.518Z,0.7
2023-03-23T13:20:29.140Z,1.1
2023-03-23T13:21:29.723Z,1.0
2023-03-23T13:22:30.320Z,0.9
2023-03-23T13:23:30.919Z,0.9
2023-03-23T13:24:31.523Z,0.7
2023-03-23T13:25:32.123Z,0.7
2023-03-23T13:26:32.750Z,0.9
2023-03-23T13:27:33.351Z,0.8
2023-03-23T13:28:33.957Z,1.0
2023-03-23T13:29:34.573Z,1.1
2023-03-23T13:30:35.176Z,0.8
2023-03-23T13:31:35.773Z,0.9
2023-03-23T13:32:38.843Z,0.9
2023-03-23T13:33:37.970Z,1.1
2023-03-23T13:34:38.573Z,0.8
2023-03-23T13:35:39.177Z,1.2
2023-03-23T13:36:39.779Z,1.0
2023-03-23T13:37:40.375Z,1.2
2023-03-23T13:38:40.977Z,1.2
2023-03-23T13:39:41.577Z,0.8
2023-03-23T13:40:42.453Z,0.6
2023-03-23T13:41:42.800Z,0.8
2023-03-23T13:42:43.400Z,0.7
2023-03-23T13:43:44.002Z,0.9
2023-03-23T13:44:44.604Z,0.7
2023-03-23T13:45:45.511Z,0.8
2023-03-23T13:46:46.292Z,0.9
2023-03-23T13:47:46.889Z,0.6
2023-03-23T13:48:47.504Z,1.0
2023-03-23T13:49:48.144Z,0.6
2023-03-23T13:50:48.715Z,0.8
2023-03-23T13:51:49.318Z,0.9
2023-03-23T13:52:49.970Z,0.8
2023-03-23T13:53:50.515Z,1.0
2023-03-23T13:54:51.124Z,0.9
2023-03-23T13:55:51.720Z,0.8
2023-03-23T13:56:52.342Z,1.0